sensor_id;sensor_type;location;lat;lon;timestamp;temperature;humidity
52621;DHT22;38515;53.160;6.990;2023-08-06T00:01:57;13.50;99.90
52621;DHT22;38515;53.160;6.990;2023-08-06T00:04:23;13.50;99.90
52621;DHT22;38515;53.160;6.990;2023-08-06T00:06:49;13.40;99.90
52621;DHT22;38515;53.160;6.990;2023-08-06T00:09:15;13.50;99.90
52621;DHT22;38515;53.160;6.990;2023-08-06T00:11:41;13.40;99.90
52621;DHT22;38515;53.160;6.990;2023-08-06T00:14:09;13.50;99.90
52621;DHT22;38515;53.160;6.990;2023-08-06T00:16:35;13.40;99.90
52621;DHT22;38515;53.160;6.990;2023-08-06T00:19:01;13.50;99.90
52621;DHT22;38515;53.160;6.990;2023-08-06T00:21:28;13.50;99.90
52621;DHT22;38515;53.160;6.990;2023-08-06T00:23:53;13.50;99.90
52621;DHT22;38515;53.160;6.990;2023-08-06T00:26:19;13.50;99.90
52621;DHT22;38515;53.160;6.990;2023-08-06T00:28:45;13.40;99.90
52621;DHT22;38515;53.160;6.990;2023-08-06T00:31:11;13.40;99.90
52621;DHT22;38515;53.160;6.990;2023-08-06T00:33:37;13.40;99.90
52621;DHT22;38515;53.160;6.990;2023-08-06T00:36:03;13.50;99.90
52621;DHT22;38515;53.160;6.990;2023-08-06T00:38:29;13.40;99.90
52621;DHT22;38515;53.160;6.990;2023-08-06T00:40:55;13.50;99.90
52621;DHT22;38515;53.160;6.990;2023-08-06T00:43:20;13.50;99.90
52621;DHT22;38515;53.160;6.990;2023-08-06T00:45:46;13.50;99.90
52621;DHT22;38515;53.160;6.990;2023-08-06T00:48:13;13.50;99.90
52621;DHT22;38515;53.160;6.990;2023-08-06T00:50:39;13.50;99.90
52621;DHT22;38515;53.160;6.990;2023-08-06T00:53:05;13.40;99.90
52621;DHT22;38515;53.160;6.990;2023-08-06T00:55:31;13.40;99.90
52621;DHT22;38515;53.160;6.990;2023-08-06T00:57:58;13.40;99.90
52621;DHT22;38515;53.160;6.990;2023-08-06T01:00:24;13.40;99.90
52621;DHT22;38515;53.160;6.990;2023-08-06T01:02:52;13.60;99.90
52621;DHT22;38515;53.160;6.990;2023-08-06T01:05:19;13.50;99.90
52621;DHT22;38515;53.160;6.990;2023-08-06T01:16:00;13.50;99.90
52621;DHT22;38515;53.160;6.990;2023-08-06T01:18:27;13.60;99.90
52621;DHT22;38515;53.160;6.990;2023-08-06T01:20:53;13.60;99.90
52621;DHT22;38515;53.160;6.990;2023-08-06T01:23:19;13.50;99.90
52621;DHT22;38515;53.160;6.990;2023-08-06T01:31:21;13.50;99.90
52621;DHT22;38515;53.160;6.990;2023-08-06T01:33:49;13.60;99.90
52621;DHT22;38515;53.160;6.990;2023-08-06T01:36:16;13.50;99.90
52621;DHT22;38515;53.160;6.990;2023-08-06T01:38:47;13.50;99.90
52621;DHT22;38515;53.160;6.990;2023-08-06T01:41:13;13.60;99.90
52621;DHT22;38515;53.160;6.990;2023-08-06T01:43:39;14.10;99.90
52621;DHT22;38515;53.160;6.990;2023-08-06T01:46:05;13.50;99.90
52621;DHT22;38515;53.160;6.990;2023-08-06T01:48:31;13.50;99.90
52621;DHT22;38515;53.160;6.990;2023-08-06T01:50:57;13.60;99.90
52621;DHT22;38515;53.160;6.990;2023-08-06T01:53:23;13.50;99.90
52621;DHT22;38515;53.160;6.990;2023-08-06T01:55:49;13.60;99.90
52621;DHT22;38515;53.160;6.990;2023-08-06T01:58:15;13.50;99.90
52621;DHT22;38515;53.160;6.990;2023-08-06T02:00:41;13.70;99.90
52621;DHT22;38515;53.160;6.990;2023-08-06T02:03:07;13.60;99.90
52621;DHT22;38515;53.160;6.990;2023-08-06T02:05:33;13.60;99.90
52621;DHT22;38515;53.160;6.990;2023-08-06T02:07:59;13.60;99.90
52621;DHT22;38515;53.160;6.990;2023-08-06T02:10:25;13.50;99.90
52621;DHT22;38515;53.160;6.990;2023-08-06T02:12:50;13.60;99.90
52621;DHT22;38515;53.160;6.990;2023-08-06T02:15:16;13.60;99.90
52621;DHT22;38515;53.160;6.990;2023-08-06T02:17:42;13.60;99.90
52621;DHT22;38515;53.160;6.990;2023-08-06T02:20:08;13.70;99.90
52621;DHT22;38515;53.160;6.990;2023-08-06T02:22:34;13.70;99.90
52621;DHT22;38515;53.160;6.990;2023-08-06T02:25:00;13.60;99.90
52621;DHT22;38515;53.160;6.990;2023-08-06T02:27:26;13.70;99.90
52621;DHT22;38515;53.160;6.990;2023-08-06T02:29:51;13.70;99.90
52621;DHT22;38515;53.160;6.990;2023-08-06T02:32:17;13.80;99.90
52621;DHT22;38515;53.160;6.990;2023-08-06T02:34:43;13.70;99.90
52621;DHT22;38515;53.160;6.990;2023-08-06T02:37:10;13.70;99.90
52621;DHT22;38515;53.160;6.990;2023-08-06T02:39:35;13.80;99.90
52621;DHT22;38515;53.160;6.990;2023-08-06T02:42:08;13.80;99.90
52621;DHT22;38515;53.160;6.990;2023-08-06T02:44:35;13.80;99.90
52621;DHT22;38515;53.160;6.990;2023-08-06T02:47:01;13.70;99.90
52621;DHT22;38515;53.160;6.990;2023-08-06T02:49:27;13.80;99.90
52621;DHT22;38515;53.160;6.990;2023-08-06T02:51:53;13.90;99.90
52621;DHT22;38515;53.160;6.990;2023-08-06T02:54:19;13.70;99.90
52621;DHT22;38515;53.160;6.990;2023-08-06T02:56:45;13.90;99.90
52621;DHT22;38515;53.160;6.990;2023-08-06T02:59:12;13.80;99.90
52621;DHT22;38515;53.160;6.990;2023-08-06T03:01:38;13.80;99.90
52621;DHT22;38515;53.160;6.990;2023-08-06T03:04:04;13.80;99.90
52621;DHT22;38515;53.160;6.990;2023-08-06T03:06:30;13.90;99.90
52621;DHT22;38515;53.160;6.990;2023-08-06T03:08:56;13.90;99.90
52621;DHT22;38515;53.160;6.990;2023-08-06T03:11:22;13.80;99.90
52621;DHT22;38515;53.160;6.990;2023-08-06T03:13:48;13.80;99.90
52621;DHT22;38515;53.160;6.990;2023-08-06T03:16:14;13.80;99.90
52621;DHT22;38515;53.160;6.990;2023-08-06T03:18:40;13.80;99.90
52621;DHT22;38515;53.160;6.990;2023-08-06T03:21:06;13.80;99.90
52621;DHT22;38515;53.160;6.990;2023-08-06T03:23:32;13.80;99.90
52621;DHT22;38515;53.160;6.990;2023-08-06T03:26:04;13.80;99.90
52621;DHT22;38515;53.160;6.990;2023-08-06T03:28:30;13.80;99.90
52621;DHT22;38515;53.160;6.990;2023-08-06T03:31:02;13.80;99.90
52621;DHT22;38515;53.160;6.990;2023-08-06T03:33:29;13.90;99.90
52621;DHT22;38515;53.160;6.990;2023-08-06T03:35:55;13.80;99.90
52621;DHT22;38515;53.160;6.990;2023-08-06T03:38:22;13.90;99.90
52621;DHT22;38515;53.160;6.990;2023-08-06T03:40:48;13.90;99.90
52621;DHT22;38515;53.160;6.990;2023-08-06T03:43:14;13.90;99.90
52621;DHT22;38515;53.160;6.990;2023-08-06T03:45:41;13.80;99.90
52621;DHT22;38515;53.160;6.990;2023-08-06T03:48:07;13.90;99.90
52621;DHT22;38515;53.160;6.990;2023-08-06T03:50:33;13.80;99.90
52621;DHT22;38515;53.160;6.990;2023-08-06T03:52:59;13.90;99.90
52621;DHT22;38515;53.160;6.990;2023-08-06T03:55:25;13.90;99.90
52621;DHT22;38515;53.160;6.990;2023-08-06T03:57:50;13.90;99.90
52621;DHT22;38515;53.160;6.990;2023-08-06T04:00:16;13.80;99.90
52621;DHT22;38515;53.160;6.990;2023-08-06T04:02:42;13.80;99.90
52621;DHT22;38515;53.160;6.990;2023-08-06T04:05:08;13.80;99.90
52621;DHT22;38515;53.160;6.990;2023-08-06T04:07:35;13.80;99.90
52621;DHT22;38515;53.160;6.990;2023-08-06T04:10:03;13.80;99.90
52621;DHT22;38515;53.160;6.990;2023-08-06T04:12:29;13.80;99.90
52621;DHT22;38515;53.160;6.990;2023-08-06T04:14:57;13.90;99.90
52621;DHT22;38515;53.160;6.990;2023-08-06T04:17:23;13.70;99.90
52621;DHT22;38515;53.160;6.990;2023-08-06T04:19:51;13.80;99.90
52621;DHT22;38515;53.160;6.990;2023-08-06T04:22:18;13.80;99.90
52621;DHT22;38515;53.160;6.990;2023-08-06T04:24:44;13.80;99.90
52621;DHT22;38515;53.160;6.990;2023-08-06T04:27:10;13.70;99.90
52621;DHT22;38515;53.160;6.990;2023-08-06T04:29:36;13.80;99.90
52621;DHT22;38515;53.160;6.990;2023-08-06T04:32:05;13.70;99.90
52621;DHT22;38515;53.160;6.990;2023-08-06T04:34:31;13.80;99.90
52621;DHT22;38515;53.160;6.990;2023-08-06T04:39:23;13.80;99.90
52621;DHT22;38515;53.160;6.990;2023-08-06T04:41:49;13.80;99.90
52621;DHT22;38515;53.160;6.990;2023-08-06T04:44:15;13.80;99.90
52621;DHT22;38515;53.160;6.990;2023-08-06T04:46:41;14.00;99.90
52621;DHT22;38515;53.160;6.990;2023-08-06T04:49:07;13.90;99.90
52621;DHT22;38515;53.160;6.990;2023-08-06T04:51:33;14.00;99.90
52621;DHT22;38515;53.160;6.990;2023-08-06T04:53:58;14.00;99.90
52621;DHT22;38515;53.160;6.990;2023-08-06T04:56:24;13.90;99.90
52621;DHT22;38515;53.160;6.990;2023-08-06T04:58:50;14.00;99.90
52621;DHT22;38515;53.160;6.990;2023-08-06T05:01:16;14.10;99.90
52621;DHT22;38515;53.160;6.990;2023-08-06T05:03:42;14.10;99.90
52621;DHT22;38515;53.160;6.990;2023-08-06T05:06:08;14.00;99.90
52621;DHT22;38515;53.160;6.990;2023-08-06T05:08:34;14.20;99.90
52621;DHT22;38515;53.160;6.990;2023-08-06T05:11:00;14.20;99.90
52621;DHT22;38515;53.160;6.990;2023-08-06T05:13:26;14.10;99.90
52621;DHT22;38515;53.160;6.990;2023-08-06T05:15:54;14.20;99.90
52621;DHT22;38515;53.160;6.990;2023-08-06T05:18:20;14.20;99.90
52621;DHT22;38515;53.160;6.990;2023-08-06T05:20:46;14.20;99.90
52621;DHT22;38515;53.160;6.990;2023-08-06T05:23:12;14.20;99.90
52621;DHT22;38515;53.160;6.990;2023-08-06T05:25:38;14.30;99.90
52621;DHT22;38515;53.160;6.990;2023-08-06T05:28:07;14.30;99.90
52621;DHT22;38515;53.160;6.990;2023-08-06T05:30:32;14.30;99.90
52621;DHT22;38515;53.160;6.990;2023-08-06T05:32:58;14.30;99.90
52621;DHT22;38515;53.160;6.990;2023-08-06T05:35:24;14.40;99.90
52621;DHT22;38515;53.160;6.990;2023-08-06T05:37:50;14.40;99.90
52621;DHT22;38515;53.160;6.990;2023-08-06T05:40:16;14.40;99.90
52621;DHT22;38515;53.160;6.990;2023-08-06T05:42:42;14.50;99.90
52621;DHT22;38515;53.160;6.990;2023-08-06T05:45:08;14.50;99.90
52621;DHT22;38515;53.160;6.990;2023-08-06T05:47:35;14.60;99.90
52621;DHT22;38515;53.160;6.990;2023-08-06T05:50:01;14.70;99.90
52621;DHT22;38515;53.160;6.990;2023-08-06T05:52:27;14.70;99.90
52621;DHT22;38515;53.160;6.990;2023-08-06T05:54:53;14.80;99.90
52621;DHT22;38515;53.160;6.990;2023-08-06T05:57:20;14.80;99.90
52621;DHT22;38515;53.160;6.990;2023-08-06T05:59:46;14.90;99.90
52621;DHT22;38515;53.160;6.990;2023-08-06T06:02:12;14.90;99.90
52621;DHT22;38515;53.160;6.990;2023-08-06T06:04:38;14.90;99.90
52621;DHT22;38515;53.160;6.990;2023-08-06T06:07:04;15.00;99.90
52621;DHT22;38515;53.160;6.990;2023-08-06T06:09:30;14.90;99.90
52621;DHT22;38515;53.160;6.990;2023-08-06T06:11:55;15.00;99.90
52621;DHT22;38515;53.160;6.990;2023-08-06T06:14:21;15.10;99.90
52621;DHT22;38515;53.160;6.990;2023-08-06T06:16:47;15.10;99.90
52621;DHT22;38515;53.160;6.990;2023-08-06T06:19:13;15.10;99.90
52621;DHT22;38515;53.160;6.990;2023-08-06T06:21:40;15.20;99.90
52621;DHT22;38515;53.160;6.990;2023-08-06T06:24:06;15.20;99.90
52621;DHT22;38515;53.160;6.990;2023-08-06T06:26:33;15.30;99.90
52621;DHT22;38515;53.160;6.990;2023-08-06T06:28:59;15.30;99.90
52621;DHT22;38515;53.160;6.990;2023-08-06T06:31:25;15.40;99.90
52621;DHT22;38515;53.160;6.990;2023-08-06T06:33:51;15.40;99.90
52621;DHT22;38515;53.160;6.990;2023-08-06T06:36:27;15.50;99.90
52621;DHT22;38515;53.160;6.990;2023-08-06T06:38:53;15.60;99.90
52621;DHT22;38515;53.160;6.990;2023-08-06T06:41:19;15.80;99.90
52621;DHT22;38515;53.160;6.990;2023-08-06T06:43:44;16.00;99.90
52621;DHT22;38515;53.160;6.990;2023-08-06T06:46:10;16.10;99.90
52621;DHT22;38515;53.160;6.990;2023-08-06T06:48:36;16.10;99.90
52621;DHT22;38515;53.160;6.990;2023-08-06T06:51:02;16.10;99.90
52621;DHT22;38515;53.160;6.990;2023-08-06T06:53:28;16.20;99.90
52621;DHT22;38515;53.160;6.990;2023-08-06T06:55:55;16.30;99.90
52621;DHT22;38515;53.160;6.990;2023-08-06T06:58:21;16.20;99.90
52621;DHT22;38515;53.160;6.990;2023-08-06T07:00:48;16.20;99.90
52621;DHT22;38515;53.160;6.990;2023-08-06T07:03:15;16.00;99.90
52621;DHT22;38515;53.160;6.990;2023-08-06T07:05:41;16.00;99.90
52621;DHT22;38515;53.160;6.990;2023-08-06T07:08:07;16.00;99.90
52621;DHT22;38515;53.160;6.990;2023-08-06T07:10:33;16.00;99.90
52621;DHT22;38515;53.160;6.990;2023-08-06T07:12:59;16.00;99.90
52621;DHT22;38515;53.160;6.990;2023-08-06T07:15:26;16.00;99.90
52621;DHT22;38515;53.160;6.990;2023-08-06T07:17:51;16.00;99.90
52621;DHT22;38515;53.160;6.990;2023-08-06T07:20:17;16.00;99.90
52621;DHT22;38515;53.160;6.990;2023-08-06T07:22:44;16.10;99.90
52621;DHT22;38515;53.160;6.990;2023-08-06T07:25:10;16.20;99.90
52621;DHT22;38515;53.160;6.990;2023-08-06T07:27:37;16.30;99.90
52621;DHT22;38515;53.160;6.990;2023-08-06T07:30:03;16.30;99.90
52621;DHT22;38515;53.160;6.990;2023-08-06T07:32:31;16.40;99.90
52621;DHT22;38515;53.160;6.990;2023-08-06T07:34:57;16.40;99.90
52621;DHT22;38515;53.160;6.990;2023-08-06T07:37:26;16.50;99.90
52621;DHT22;38515;53.160;6.990;2023-08-06T07:39:54;16.50;99.90
52621;DHT22;38515;53.160;6.990;2023-08-06T07:42:23;16.60;99.90
52621;DHT22;38515;53.160;6.990;2023-08-06T07:44:57;16.50;99.90
52621;DHT22;38515;53.160;6.990;2023-08-06T07:47:26;16.60;99.90
52621;DHT22;38515;53.160;6.990;2023-08-06T07:49:54;16.60;99.90
52621;DHT22;38515;53.160;6.990;2023-08-06T07:52:20;16.80;99.90
52621;DHT22;38515;53.160;6.990;2023-08-06T07:54:46;16.90;99.90
52621;DHT22;38515;53.160;6.990;2023-08-06T07:57:12;17.10;99.90
52621;DHT22;38515;53.160;6.990;2023-08-06T07:59:40;17.20;99.90
52621;DHT22;38515;53.160;6.990;2023-08-06T08:02:06;17.30;99.90
52621;DHT22;38515;53.160;6.990;2023-08-06T08:04:32;17.50;99.90
52621;DHT22;38515;53.160;6.990;2023-08-06T08:06:57;17.40;99.90
52621;DHT22;38515;53.160;6.990;2023-08-06T08:09:23;17.40;99.90
52621;DHT22;38515;53.160;6.990;2023-08-06T08:11:49;17.30;99.90
52621;DHT22;38515;53.160;6.990;2023-08-06T08:14:16;17.30;99.90
52621;DHT22;38515;53.160;6.990;2023-08-06T08:16:42;17.40;99.90
52621;DHT22;38515;53.160;6.990;2023-08-06T08:19:08;17.50;99.90
52621;DHT22;38515;53.160;6.990;2023-08-06T08:21:34;17.70;99.90
52621;DHT22;38515;53.160;6.990;2023-08-06T08:24:00;17.80;99.90
52621;DHT22;38515;53.160;6.990;2023-08-06T08:26:27;17.90;99.90
52621;DHT22;38515;53.160;6.990;2023-08-06T08:28:54;18.00;99.90
52621;DHT22;38515;53.160;6.990;2023-08-06T08:31:20;18.00;99.90
52621;DHT22;38515;53.160;6.990;2023-08-06T08:33:46;18.00;99.90
52621;DHT22;38515;53.160;6.990;2023-08-06T08:36:12;18.00;99.90
52621;DHT22;38515;53.160;6.990;2023-08-06T08:38:39;18.10;99.90
52621;DHT22;38515;53.160;6.990;2023-08-06T08:41:05;18.10;99.90
52621;DHT22;38515;53.160;6.990;2023-08-06T08:43:31;18.10;99.90
52621;DHT22;38515;53.160;6.990;2023-08-06T08:45:58;18.10;99.90
52621;DHT22;38515;53.160;6.990;2023-08-06T08:48:25;18.30;99.90
52621;DHT22;38515;53.160;6.990;2023-08-06T08:50:52;18.30;99.90
52621;DHT22;38515;53.160;6.990;2023-08-06T08:53:18;18.40;99.90
52621;DHT22;38515;53.160;6.990;2023-08-06T08:55:48;18.40;99.90
52621;DHT22;38515;53.160;6.990;2023-08-06T08:58:15;18.50;99.90
52621;DHT22;38515;53.160;6.990;2023-08-06T09:00:46;18.60;99.90
52621;DHT22;38515;53.160;6.990;2023-08-06T09:03:14;18.60;99.90
52621;DHT22;38515;53.160;6.990;2023-08-06T09:05:44;18.60;99.90
52621;DHT22;38515;53.160;6.990;2023-08-06T09:08:15;18.70;99.90
52621;DHT22;38515;53.160;6.990;2023-08-06T09:10:43;18.90;99.90
52621;DHT22;38515;53.160;6.990;2023-08-06T09:13:09;19.10;99.90
52621;DHT22;38515;53.160;6.990;2023-08-06T09:15:38;19.40;99.90
52621;DHT22;38515;53.160;6.990;2023-08-06T09:18:12;19.50;99.90
52621;DHT22;38515;53.160;6.990;2023-08-06T09:20:45;19.70;99.90
52621;DHT22;38515;53.160;6.990;2023-08-06T09:23:11;19.90;99.90
52621;DHT22;38515;53.160;6.990;2023-08-06T09:25:40;20.00;99.90
52621;DHT22;38515;53.160;6.990;2023-08-06T09:28:11;19.90;99.90
52621;DHT22;38515;53.160;6.990;2023-08-06T09:30:37;19.90;99.90
52621;DHT22;38515;53.160;6.990;2023-08-06T09:33:08;19.80;99.90
52621;DHT22;38515;53.160;6.990;2023-08-06T09:35:39;19.90;99.90
52621;DHT22;38515;53.160;6.990;2023-08-06T09:38:07;19.80;99.90
52621;DHT22;38515;53.160;6.990;2023-08-06T09:40:33;19.70;99.90
52621;DHT22;38515;53.160;6.990;2023-08-06T09:43:00;19.80;99.90
52621;DHT22;38515;53.160;6.990;2023-08-06T09:45:30;19.90;99.90
52621;DHT22;38515;53.160;6.990;2023-08-06T09:47:59;20.10;99.90
52621;DHT22;38515;53.160;6.990;2023-08-06T09:50:31;20.10;99.90
52621;DHT22;38515;53.160;6.990;2023-08-06T09:52:58;20.20;99.90
52621;DHT22;38515;53.160;6.990;2023-08-06T09:55:25;20.20;99.90
52621;DHT22;38515;53.160;6.990;2023-08-06T09:57:52;20.20;99.90
52621;DHT22;38515;53.160;6.990;2023-08-06T10:00:19;20.30;99.90
52621;DHT22;38515;53.160;6.990;2023-08-06T10:02:46;20.30;99.90
52621;DHT22;38515;53.160;6.990;2023-08-06T10:05:12;20.40;99.90
52621;DHT22;38515;53.160;6.990;2023-08-06T10:07:39;20.40;99.90
52621;DHT22;38515;53.160;6.990;2023-08-06T10:10:06;20.40;99.90
52621;DHT22;38515;53.160;6.990;2023-08-06T10:12:45;20.50;99.90
52621;DHT22;38515;53.160;6.990;2023-08-06T10:15:15;20.60;99.90
52621;DHT22;38515;53.160;6.990;2023-08-06T10:17:43;20.60;99.90
52621;DHT22;38515;53.160;6.990;2023-08-06T10:20:11;20.60;99.90
52621;DHT22;38515;53.160;6.990;2023-08-06T10:22:43;20.60;99.90
52621;DHT22;38515;53.160;6.990;2023-08-06T10:25:10;20.60;99.90
52621;DHT22;38515;53.160;6.990;2023-08-06T10:27:40;20.60;99.90
52621;DHT22;38515;53.160;6.990;2023-08-06T10:30:26;20.60;99.90
52621;DHT22;38515;53.160;6.990;2023-08-06T10:32:54;20.80;99.90
52621;DHT22;38515;53.160;6.990;2023-08-06T10:35:43;20.80;99.90
52621;DHT22;38515;53.160;6.990;2023-08-06T10:38:18;21.00;99.90
52621;DHT22;38515;53.160;6.990;2023-08-06T10:41:01;21.00;99.90
52621;DHT22;38515;53.160;6.990;2023-08-06T10:43:33;21.00;99.90
52621;DHT22;38515;53.160;6.990;2023-08-06T10:46:03;21.00;99.90
52621;DHT22;38515;53.160;6.990;2023-08-06T10:48:40;21.10;99.90
52621;DHT22;38515;53.160;6.990;2023-08-06T10:51:10;21.00;99.90
52621;DHT22;38515;53.160;6.990;2023-08-06T10:53:45;21.10;99.90
52621;DHT22;38515;53.160;6.990;2023-08-06T10:56:16;21.10;99.90
52621;DHT22;38515;53.160;6.990;2023-08-06T10:58:42;21.10;99.90
52621;DHT22;38515;53.160;6.990;2023-08-06T11:01:10;21.00;99.90
52621;DHT22;38515;53.160;6.990;2023-08-06T11:03:36;21.10;99.90
52621;DHT22;38515;53.160;6.990;2023-08-06T11:06:03;21.10;99.90
52621;DHT22;38515;53.160;6.990;2023-08-06T11:08:35;21.10;99.90
52621;DHT22;38515;53.160;6.990;2023-08-06T11:11:14;21.10;99.90
52621;DHT22;38515;53.160;6.990;2023-08-06T11:13:44;21.10;99.90
52621;DHT22;38515;53.160;6.990;2023-08-06T11:16:22;21.00;99.90
52621;DHT22;38515;53.160;6.990;2023-08-06T11:18:50;20.90;99.90
52621;DHT22;38515;53.160;6.990;2023-08-06T11:21:19;20.90;99.90
52621;DHT22;38515;53.160;6.990;2023-08-06T11:23:45;20.80;99.90
52621;DHT22;38515;53.160;6.990;2023-08-06T11:26:11;20.90;99.90
52621;DHT22;38515;53.160;6.990;2023-08-06T11:28:37;20.90;99.90
52621;DHT22;38515;53.160;6.990;2023-08-06T11:31:03;20.90;99.90
52621;DHT22;38515;53.160;6.990;2023-08-06T11:33:29;21.00;99.90
52621;DHT22;38515;53.160;6.990;2023-08-06T11:35:58;21.20;99.90
52621;DHT22;38515;53.160;6.990;2023-08-06T11:38:26;21.20;99.90
52621;DHT22;38515;53.160;6.990;2023-08-06T11:40:52;21.20;99.90
52621;DHT22;38515;53.160;6.990;2023-08-06T11:43:19;21.10;99.90
52621;DHT22;38515;53.160;6.990;2023-08-06T11:45:50;21.10;99.90
52621;DHT22;38515;53.160;6.990;2023-08-06T11:48:18;21.00;99.90
52621;DHT22;38515;53.160;6.990;2023-08-06T11:50:44;20.90;99.90
52621;DHT22;38515;53.160;6.990;2023-08-06T11:53:13;20.80;99.90
52621;DHT22;38515;53.160;6.990;2023-08-06T11:55:40;20.70;99.90
52621;DHT22;38515;53.160;6.990;2023-08-06T11:58:06;20.50;99.90
52621;DHT22;38515;53.160;6.990;2023-08-06T12:00:32;20.40;99.90
52621;DHT22;38515;53.160;6.990;2023-08-06T12:02:58;20.40;99.90
52621;DHT22;38515;53.160;6.990;2023-08-06T12:05:29;20.40;99.90
52621;DHT22;38515;53.160;6.990;2023-08-06T12:08:00;20.40;99.90
52621;DHT22;38515;53.160;6.990;2023-08-06T12:10:28;20.30;99.90
52621;DHT22;38515;53.160;6.990;2023-08-06T12:12:54;20.10;99.90
52621;DHT22;38515;53.160;6.990;2023-08-06T12:15:21;20.00;99.90
52621;DHT22;38515;53.160;6.990;2023-08-06T12:17:47;20.10;99.90
52621;DHT22;38515;53.160;6.990;2023-08-06T12:20:13;20.10;99.90
52621;DHT22;38515;53.160;6.990;2023-08-06T12:22:39;20.30;99.90
52621;DHT22;38515;53.160;6.990;2023-08-06T12:25:10;20.40;99.90
52621;DHT22;38515;53.160;6.990;2023-08-06T12:27:38;20.40;99.90
52621;DHT22;38515;53.160;6.990;2023-08-06T12:30:05;20.50;99.90
52621;DHT22;38515;53.160;6.990;2023-08-06T12:32:31;20.60;99.90
52621;DHT22;38515;53.160;6.990;2023-08-06T12:34:57;20.50;99.90
52621;DHT22;38515;53.160;6.990;2023-08-06T12:37:24;20.60;99.90
52621;DHT22;38515;53.160;6.990;2023-08-06T12:39:51;20.60;99.90
52621;DHT22;38515;53.160;6.990;2023-08-06T12:42:16;20.70;99.90
52621;DHT22;38515;53.160;6.990;2023-08-06T12:44:42;20.70;99.90
52621;DHT22;38515;53.160;6.990;2023-08-06T12:47:08;20.80;99.90
52621;DHT22;38515;53.160;6.990;2023-08-06T12:49:34;20.90;99.90
52621;DHT22;38515;53.160;6.990;2023-08-06T12:52:00;20.70;99.90
52621;DHT22;38515;53.160;6.990;2023-08-06T12:54:27;20.60;99.90
52621;DHT22;38515;53.160;6.990;2023-08-06T12:56:53;20.50;99.90
52621;DHT22;38515;53.160;6.990;2023-08-06T12:59:19;20.50;99.90
52621;DHT22;38515;53.160;6.990;2023-08-06T13:01:45;20.50;99.90
52621;DHT22;38515;53.160;6.990;2023-08-06T13:04:13;20.30;99.90
52621;DHT22;38515;53.160;6.990;2023-08-06T13:06:39;20.20;99.90
52621;DHT22;38515;53.160;6.990;2023-08-06T13:09:09;20.10;99.90
52621;DHT22;38515;53.160;6.990;2023-08-06T13:11:36;20.10;99.90
52621;DHT22;38515;53.160;6.990;2023-08-06T13:14:11;20.00;99.90
52621;DHT22;38515;53.160;6.990;2023-08-06T13:16:39;20.00;99.90
52621;DHT22;38515;53.160;6.990;2023-08-06T13:19:06;19.90;99.90
52621;DHT22;38515;53.160;6.990;2023-08-06T13:21:59;20.00;99.90
52621;DHT22;38515;53.160;6.990;2023-08-06T13:24:26;19.90;99.90
52621;DHT22;38515;53.160;6.990;2023-08-06T13:26:53;19.90;99.90
52621;DHT22;38515;53.160;6.990;2023-08-06T13:29:18;19.80;99.90
52621;DHT22;38515;53.160;6.990;2023-08-06T13:31:44;19.80;99.90
52621;DHT22;38515;53.160;6.990;2023-08-06T13:34:10;19.80;99.90
52621;DHT22;38515;53.160;6.990;2023-08-06T13:36:36;19.80;99.90
52621;DHT22;38515;53.160;6.990;2023-08-06T13:39:02;19.90;99.90
52621;DHT22;38515;53.160;6.990;2023-08-06T13:41:31;19.90;99.90
52621;DHT22;38515;53.160;6.990;2023-08-06T13:43:57;19.90;99.90
52621;DHT22;38515;53.160;6.990;2023-08-06T13:46:22;19.90;99.90
52621;DHT22;38515;53.160;6.990;2023-08-06T13:48:49;20.00;99.90
52621;DHT22;38515;53.160;6.990;2023-08-06T13:51:18;20.10;99.90
52621;DHT22;38515;53.160;6.990;2023-08-06T13:53:44;20.10;99.90
52621;DHT22;38515;53.160;6.990;2023-08-06T13:56:10;20.20;99.90
52621;DHT22;38515;53.160;6.990;2023-08-06T13:58:40;20.20;99.90
52621;DHT22;38515;53.160;6.990;2023-08-06T14:01:06;20.30;99.90
52621;DHT22;38515;53.160;6.990;2023-08-06T14:03:32;20.20;99.90
52621;DHT22;38515;53.160;6.990;2023-08-06T14:05:58;20.20;99.90
52621;DHT22;38515;53.160;6.990;2023-08-06T14:08:24;20.20;99.90
52621;DHT22;38515;53.160;6.990;2023-08-06T14:10:51;20.20;99.90
52621;DHT22;38515;53.160;6.990;2023-08-06T14:13:17;20.30;99.90
52621;DHT22;38515;53.160;6.990;2023-08-06T14:15:43;20.30;99.90
52621;DHT22;38515;53.160;6.990;2023-08-06T14:18:13;20.40;99.90
52621;DHT22;38515;53.160;6.990;2023-08-06T14:20:39;20.30;99.90
52621;DHT22;38515;53.160;6.990;2023-08-06T14:23:05;20.30;99.90
52621;DHT22;38515;53.160;6.990;2023-08-06T14:25:32;20.30;99.90
52621;DHT22;38515;53.160;6.990;2023-08-06T14:27:58;20.10;99.90
52621;DHT22;38515;53.160;6.990;2023-08-06T14:30:24;20.00;99.90
52621;DHT22;38515;53.160;6.990;2023-08-06T14:32:50;20.00;99.90
52621;DHT22;38515;53.160;6.990;2023-08-06T14:35:16;20.10;99.90
52621;DHT22;38515;53.160;6.990;2023-08-06T14:37:41;20.00;99.90
52621;DHT22;38515;53.160;6.990;2023-08-06T14:40:08;20.10;99.90
52621;DHT22;38515;53.160;6.990;2023-08-06T14:42:34;20.10;99.90
52621;DHT22;38515;53.160;6.990;2023-08-06T14:45:00;20.00;99.90
52621;DHT22;38515;53.160;6.990;2023-08-06T14:47:26;20.00;99.90
52621;DHT22;38515;53.160;6.990;2023-08-06T14:49:52;20.00;99.90
52621;DHT22;38515;53.160;6.990;2023-08-06T14:52:24;20.10;99.90
52621;DHT22;38515;53.160;6.990;2023-08-06T14:54:50;20.10;99.90
52621;DHT22;38515;53.160;6.990;2023-08-06T14:57:18;20.10;99.90
52621;DHT22;38515;53.160;6.990;2023-08-06T14:59:44;20.00;99.90
52621;DHT22;38515;53.160;6.990;2023-08-06T15:02:10;20.00;99.90
52621;DHT22;38515;53.160;6.990;2023-08-06T15:04:36;19.90;99.90
52621;DHT22;38515;53.160;6.990;2023-08-06T15:07:02;20.00;99.90
52621;DHT22;38515;53.160;6.990;2023-08-06T15:09:28;20.00;99.90
52621;DHT22;38515;53.160;6.990;2023-08-06T15:11:56;20.00;99.90
52621;DHT22;38515;53.160;6.990;2023-08-06T15:14:22;20.00;99.90
52621;DHT22;38515;53.160;6.990;2023-08-06T15:16:48;19.90;99.90
52621;DHT22;38515;53.160;6.990;2023-08-06T15:19:16;19.90;99.90
52621;DHT22;38515;53.160;6.990;2023-08-06T15:21:42;19.90;99.90
52621;DHT22;38515;53.160;6.990;2023-08-06T15:24:09;19.90;99.90
52621;DHT22;38515;53.160;6.990;2023-08-06T15:26:35;19.90;99.90
52621;DHT22;38515;53.160;6.990;2023-08-06T15:29:02;19.90;99.90
52621;DHT22;38515;53.160;6.990;2023-08-06T15:31:38;19.90;99.90
52621;DHT22;38515;53.160;6.990;2023-08-06T15:34:07;19.80;99.90
52621;DHT22;38515;53.160;6.990;2023-08-06T15:36:33;19.80;99.90
52621;DHT22;38515;53.160;6.990;2023-08-06T15:39:00;19.80;99.90
52621;DHT22;38515;53.160;6.990;2023-08-06T15:41:26;19.80;99.90
52621;DHT22;38515;53.160;6.990;2023-08-06T15:43:52;19.80;99.90
52621;DHT22;38515;53.160;6.990;2023-08-06T15:46:18;19.80;99.90